sensor_id;sensor_type;location;lat;lon;timestamp;P1;durP1;ratioP1;P2;durP2;ratioP2
68923;SDS011;55961;52.156;20.942;2022-11-02T00:02:18;50.00;;;21.05;;
68923;SDS011;55961;52.156;20.942;2022-11-02T00:04:43;56.80;;;22.27;;
68923;SDS011;55961;52.156;20.942;2022-11-02T00:07:09;59.85;;;22.42;;
68923;SDS011;55961;52.156;20.942;2022-11-02T00:09:35;52.03;;;25.00;;
68923;SDS011;55961;52.156;20.942;2022-11-02T00:12:01;50.40;;;21.98;;
68923;SDS011;55961;52.156;20.942;2022-11-02T00:14:27;50.73;;;22.50;;
68923;SDS011;55961;52.156;20.942;2022-11-02T00:16:53;47.95;;;22.00;;
68923;SDS011;55961;52.156;20.942;2022-11-02T00:19:19;49.92;;;23.30;;
68923;SDS011;55961;52.156;20.942;2022-11-02T00:21:45;48.88;;;22.80;;
68923;SDS011;55961;52.156;20.942;2022-11-02T00:24:11;50.40;;;23.57;;
68923;SDS011;55961;52.156;20.942;2022-11-02T00:26:37;48.53;;;22.75;;
68923;SDS011;55961;52.156;20.942;2022-11-02T00:29:03;46.17;;;22.33;;
68923;SDS011;55961;52.156;20.942;2022-11-02T00:31:30;50.20;;;22.58;;
68923;SDS011;55961;52.156;20.942;2022-11-02T00:33:56;46.60;;;23.07;;
68923;SDS011;55961;52.156;20.942;2022-11-02T00:36:22;48.80;;;23.95;;
68923;SDS011;55961;52.156;20.942;2022-11-02T00:38:49;43.92;;;21.83;;
68923;SDS011;55961;52.156;20.942;2022-11-02T00:41:16;47.28;;;24.17;;
68923;SDS011;55961;52.156;20.942;2022-11-02T00:43:43;43.97;;;22.20;;
68923;SDS011;55961;52.156;20.942;2022-11-02T00:46:09;48.67;;;22.85;;
68923;SDS011;55961;52.156;20.942;2022-11-02T00:48:35;46.17;;;22.83;;
68923;SDS011;55961;52.156;20.942;2022-11-02T00:51:01;42.73;;;23.10;;
68923;SDS011;55961;52.156;20.942;2022-11-02T00:53:27;49.03;;;22.65;;
68923;SDS011;55961;52.156;20.942;2022-11-02T00:55:52;44.30;;;22.85;;
68923;SDS011;55961;52.156;20.942;2022-11-02T00:58:19;45.30;;;23.07;;
68923;SDS011;55961;52.156;20.942;2022-11-02T01:00:45;46.42;;;23.85;;
68923;SDS011;55961;52.156;20.942;2022-11-02T01:03:14;47.47;;;23.85;;
68923;SDS011;55961;52.156;20.942;2022-11-02T01:05:40;47.40;;;23.25;;
68923;SDS011;55961;52.156;20.942;2022-11-02T01:08:05;49.63;;;26.10;;
68923;SDS011;55961;52.156;20.942;2022-11-02T01:10:31;48.40;;;23.70;;
68923;SDS011;55961;52.156;20.942;2022-11-02T01:12:57;48.85;;;23.67;;
68923;SDS011;55961;52.156;20.942;2022-11-02T01:15:23;49.03;;;24.93;;
68923;SDS011;55961;52.156;20.942;2022-11-02T01:17:49;50.72;;;24.77;;
68923;SDS011;55961;52.156;20.942;2022-11-02T01:20:15;49.38;;;24.52;;
68923;SDS011;55961;52.156;20.942;2022-11-02T01:22:40;46.47;;;23.47;;
68923;SDS011;55961;52.156;20.942;2022-11-02T01:25:06;53.50;;;25.92;;
68923;SDS011;55961;52.156;20.942;2022-11-02T01:27:33;54.92;;;24.52;;
68923;SDS011;55961;52.156;20.942;2022-11-02T01:29:59;51.45;;;23.77;;
68923;SDS011;55961;52.156;20.942;2022-11-02T01:32:27;50.00;;;23.63;;
68923;SDS011;55961;52.156;20.942;2022-11-02T01:34:54;53.70;;;23.52;;
68923;SDS011;55961;52.156;20.942;2022-11-02T01:37:20;53.13;;;23.13;;
68923;SDS011;55961;52.156;20.942;2022-11-02T01:39:46;52.78;;;22.67;;
68923;SDS011;55961;52.156;20.942;2022-11-02T01:42:16;53.85;;;22.13;;
68923;SDS011;55961;52.156;20.942;2022-11-02T01:44:43;55.60;;;22.50;;
68923;SDS011;55961;52.156;20.942;2022-11-02T01:47:15;57.95;;;24.17;;
68923;SDS011;55961;52.156;20.942;2022-11-02T01:50:04;61.10;;;24.10;;
68923;SDS011;55961;52.156;20.942;2022-11-02T01:52:35;59.80;;;24.10;;
68923;SDS011;55961;52.156;20.942;2022-11-02T01:57:40;63.53;;;25.67;;
68923;SDS011;55961;52.156;20.942;2022-11-02T02:00:11;70.15;;;26.02;;
68923;SDS011;55961;52.156;20.942;2022-11-02T02:02:53;76.43;;;24.85;;
68923;SDS011;55961;52.156;20.942;2022-11-02T02:05:35;72.15;;;25.73;;
68923;SDS011;55961;52.156;20.942;2022-11-02T02:08:05;73.53;;;25.52;;
68923;SDS011;55961;52.156;20.942;2022-11-02T02:10:33;83.43;;;26.17;;
68923;SDS011;55961;52.156;20.942;2022-11-02T02:12:59;77.93;;;27.05;;
68923;SDS011;55961;52.156;20.942;2022-11-02T02:15:27;72.68;;;26.48;;
68923;SDS011;55961;52.156;20.942;2022-11-02T02:18:22;71.57;;;26.92;;
68923;SDS011;55961;52.156;20.942;2022-11-02T02:24:17;98.10;;;29.53;;
68923;SDS011;55961;52.156;20.942;2022-11-02T02:29:51;84.90;;;29.90;;
68923;SDS011;55961;52.156;20.942;2022-11-02T02:38:03;94.10;;;29.23;;
68923;SDS011;55961;52.156;20.942;2022-11-02T02:40:44;101.47;;;29.75;;
68923;SDS011;55961;52.156;20.942;2022-11-02T02:43:17;105.72;;;31.63;;
68923;SDS011;55961;52.156;20.942;2022-11-02T02:45:54;126.70;;;29.50;;
68923;SDS011;55961;52.156;20.942;2022-11-02T02:48:25;142.82;;;30.85;;
68923;SDS011;55961;52.156;20.942;2022-11-02T02:50:55;102.17;;;29.20;;
68923;SDS011;55961;52.156;20.942;2022-11-02T02:53:27;110.60;;;33.40;;
68923;SDS011;55961;52.156;20.942;2022-11-02T02:55:58;112.43;;;30.80;;
68923;SDS011;55961;52.156;20.942;2022-11-02T02:58:28;127.85;;;33.58;;
68923;SDS011;55961;52.156;20.942;2022-11-02T03:00:59;176.00;;;33.67;;
68923;SDS011;55961;52.156;20.942;2022-11-02T03:03:27;107.45;;;31.65;;
68923;SDS011;55961;52.156;20.942;2022-11-02T03:05:55;118.22;;;33.95;;
68923;SDS011;55961;52.156;20.942;2022-11-02T03:08:37;113.80;;;33.28;;
68923;SDS011;55961;52.156;20.942;2022-11-02T03:19:19;129.10;;;33.97;;
68923;SDS011;55961;52.156;20.942;2022-11-02T03:21:54;127.82;;;34.70;;
68923;SDS011;55961;52.156;20.942;2022-11-02T03:24:34;126.88;;;33.17;;
68923;SDS011;55961;52.156;20.942;2022-11-02T03:30:02;119.50;;;33.42;;
68923;SDS011;55961;52.156;20.942;2022-11-02T03:32:39;132.27;;;34.30;;
68923;SDS011;55961;52.156;20.942;2022-11-02T03:35:21;130.50;;;36.38;;
68923;SDS011;55961;52.156;20.942;2022-11-02T03:37:57;142.82;;;36.17;;
68923;SDS011;55961;52.156;20.942;2022-11-02T03:40:28;127.83;;;33.73;;
68923;SDS011;55961;52.156;20.942;2022-11-02T03:42:57;130.75;;;33.83;;
68923;SDS011;55961;52.156;20.942;2022-11-02T03:45:34;153.48;;;38.33;;
68923;SDS011;55961;52.156;20.942;2022-11-02T03:48:04;156.20;;;37.80;;
68923;SDS011;55961;52.156;20.942;2022-11-02T03:50:33;148.10;;;36.85;;
68923;SDS011;55961;52.156;20.942;2022-11-02T03:53:36;170.87;;;39.93;;
68923;SDS011;55961;52.156;20.942;2022-11-02T03:56:04;144.65;;;37.35;;
68923;SDS011;55961;52.156;20.942;2022-11-02T03:58:34;163.15;;;39.63;;
68923;SDS011;55961;52.156;20.942;2022-11-02T04:01:04;202.98;;;41.70;;
68923;SDS011;55961;52.156;20.942;2022-11-02T04:03:36;186.82;;;40.90;;
68923;SDS011;55961;52.156;20.942;2022-11-02T04:06:07;167.33;;;39.67;;
68923;SDS011;55961;52.156;20.942;2022-11-02T04:08:41;138.85;;;36.63;;
68923;SDS011;55961;52.156;20.942;2022-11-02T04:11:09;163.82;;;41.85;;
68923;SDS011;55961;52.156;20.942;2022-11-02T04:13:54;142.05;;;38.63;;
68923;SDS011;55961;52.156;20.942;2022-11-02T04:16:38;174.23;;;41.05;;
68923;SDS011;55961;52.156;20.942;2022-11-02T04:19:04;140.80;;;37.00;;
68923;SDS011;55961;52.156;20.942;2022-11-02T04:21:49;151.52;;;39.65;;
68923;SDS011;55961;52.156;20.942;2022-11-02T04:24:34;128.50;;;37.55;;
68923;SDS011;55961;52.156;20.942;2022-11-02T04:27:19;151.40;;;41.00;;
68923;SDS011;55961;52.156;20.942;2022-11-02T04:29:44;182.27;;;40.27;;
68923;SDS011;55961;52.156;20.942;2022-11-02T04:32:10;158.75;;;40.17;;
68923;SDS011;55961;52.156;20.942;2022-11-02T04:34:36;167.48;;;40.13;;
68923;SDS011;55961;52.156;20.942;2022-11-02T04:37:02;138.53;;;38.70;;
68923;SDS011;55961;52.156;20.942;2022-11-02T04:39:48;233.27;;;43.22;;
68923;SDS011;55961;52.156;20.942;2022-11-02T04:42:14;209.55;;;43.33;;
68923;SDS011;55961;52.156;20.942;2022-11-02T04:44:39;164.10;;;39.70;;
68923;SDS011;55961;52.156;20.942;2022-11-02T04:47:05;150.10;;;41.40;;
68923;SDS011;55961;52.156;20.942;2022-11-02T04:49:31;142.73;;;37.47;;
68923;SDS011;55961;52.156;20.942;2022-11-02T04:51:57;172.90;;;39.45;;
68923;SDS011;55961;52.156;20.942;2022-11-02T04:54:23;123.65;;;36.95;;
68923;SDS011;55961;52.156;20.942;2022-11-02T04:56:48;157.13;;;40.20;;
68923;SDS011;55961;52.156;20.942;2022-11-02T04:59:14;152.93;;;40.35;;
68923;SDS011;55961;52.156;20.942;2022-11-02T05:01:40;164.27;;;37.45;;
68923;SDS011;55961;52.156;20.942;2022-11-02T05:04:06;188.13;;;39.47;;
68923;SDS011;55961;52.156;20.942;2022-11-02T05:06:34;183.27;;;40.75;;
68923;SDS011;55961;52.156;20.942;2022-11-02T05:09:00;182.50;;;42.78;;
68923;SDS011;55961;52.156;20.942;2022-11-02T05:11:26;176.45;;;42.38;;
68923;SDS011;55961;52.156;20.942;2022-11-02T05:13:52;158.07;;;39.43;;
68923;SDS011;55961;52.156;20.942;2022-11-02T05:16:18;188.50;;;43.60;;
68923;SDS011;55961;52.156;20.942;2022-11-02T05:18:44;173.20;;;40.07;;
68923;SDS011;55961;52.156;20.942;2022-11-02T05:21:10;109.50;;;31.65;;
68923;SDS011;55961;52.156;20.942;2022-11-02T05:23:36;151.68;;;39.45;;
68923;SDS011;55961;52.156;20.942;2022-11-02T05:26:04;161.95;;;41.83;;
68923;SDS011;55961;52.156;20.942;2022-11-02T05:28:34;144.45;;;40.40;;
68923;SDS011;55961;52.156;20.942;2022-11-02T05:31:01;147.43;;;39.90;;
68923;SDS011;55961;52.156;20.942;2022-11-02T05:33:27;132.50;;;38.20;;
68923;SDS011;55961;52.156;20.942;2022-11-02T05:35:55;127.05;;;38.80;;
68923;SDS011;55961;52.156;20.942;2022-11-02T05:38:22;155.98;;;42.80;;
68923;SDS011;55961;52.156;20.942;2022-11-02T05:40:55;162.48;;;44.58;;
68923;SDS011;55961;52.156;20.942;2022-11-02T05:43:23;158.80;;;42.80;;
68923;SDS011;55961;52.156;20.942;2022-11-02T05:45:53;126.93;;;35.95;;
68923;SDS011;55961;52.156;20.942;2022-11-02T05:48:20;140.80;;;38.80;;
68923;SDS011;55961;52.156;20.942;2022-11-02T05:50:47;133.25;;;37.90;;
68923;SDS011;55961;52.156;20.942;2022-11-02T05:53:13;131.32;;;37.47;;
68923;SDS011;55961;52.156;20.942;2022-11-02T05:55:40;139.37;;;39.47;;
68923;SDS011;55961;52.156;20.942;2022-11-02T05:58:06;172.80;;;42.78;;
68923;SDS011;55961;52.156;20.942;2022-11-02T06:00:31;137.27;;;40.72;;
68923;SDS011;55961;52.156;20.942;2022-11-02T06:02:58;159.93;;;40.40;;
68923;SDS011;55961;52.156;20.942;2022-11-02T06:05:24;134.60;;;38.38;;
68923;SDS011;55961;52.156;20.942;2022-11-02T06:07:50;136.68;;;39.38;;
68923;SDS011;55961;52.156;20.942;2022-11-02T06:10:16;146.18;;;40.13;;
68923;SDS011;55961;52.156;20.942;2022-11-02T06:12:43;188.65;;;46.95;;
68923;SDS011;55961;52.156;20.942;2022-11-02T06:15:09;153.77;;;40.47;;
68923;SDS011;55961;52.156;20.942;2022-11-02T06:17:36;130.77;;;34.28;;
68923;SDS011;55961;52.156;20.942;2022-11-02T06:20:03;123.90;;;34.75;;
68923;SDS011;55961;52.156;20.942;2022-11-02T06:22:29;127.82;;;36.05;;
68923;SDS011;55961;52.156;20.942;2022-11-02T06:24:55;140.43;;;38.60;;
68923;SDS011;55961;52.156;20.942;2022-11-02T06:27:21;123.67;;;36.40;;
68923;SDS011;55961;52.156;20.942;2022-11-02T06:29:46;130.60;;;39.55;;
68923;SDS011;55961;52.156;20.942;2022-11-02T06:32:12;116.27;;;33.73;;
68923;SDS011;55961;52.156;20.942;2022-11-02T06:34:38;120.88;;;35.20;;
68923;SDS011;55961;52.156;20.942;2022-11-02T06:37:04;131.33;;;36.83;;
68923;SDS011;55961;52.156;20.942;2022-11-02T06:39:30;133.65;;;36.85;;
68923;SDS011;55961;52.156;20.942;2022-11-02T06:41:55;123.45;;;35.08;;
68923;SDS011;55961;52.156;20.942;2022-11-02T06:44:21;121.50;;;35.20;;
68923;SDS011;55961;52.156;20.942;2022-11-02T06:46:48;78.03;;;24.90;;
68923;SDS011;55961;52.156;20.942;2022-11-02T06:49:14;97.63;;;31.73;;
68923;SDS011;55961;52.156;20.942;2022-11-02T06:51:39;100.87;;;32.57;;
68923;SDS011;55961;52.156;20.942;2022-11-02T06:54:05;100.03;;;31.15;;
68923;SDS011;55961;52.156;20.942;2022-11-02T06:56:31;90.33;;;29.60;;
68923;SDS011;55961;52.156;20.942;2022-11-02T06:58:57;88.90;;;30.05;;
68923;SDS011;55961;52.156;20.942;2022-11-02T07:01:23;95.03;;;30.05;;
68923;SDS011;55961;52.156;20.942;2022-11-02T07:03:49;89.33;;;28.27;;
68923;SDS011;55961;52.156;20.942;2022-11-02T07:06:14;81.13;;;30.10;;
68923;SDS011;55961;52.156;20.942;2022-11-02T07:08:40;75.00;;;28.08;;
68923;SDS011;55961;52.156;20.942;2022-11-02T07:11:06;68.60;;;24.08;;
68923;SDS011;55961;52.156;20.942;2022-11-02T07:13:32;71.67;;;26.50;;
68923;SDS011;55961;52.156;20.942;2022-11-02T07:15:58;68.47;;;25.30;;
68923;SDS011;55961;52.156;20.942;2022-11-02T07:18:24;76.25;;;26.80;;
68923;SDS011;55961;52.156;20.942;2022-11-02T07:20:50;72.10;;;25.80;;
68923;SDS011;55961;52.156;20.942;2022-11-02T07:23:16;71.60;;;25.98;;
68923;SDS011;55961;52.156;20.942;2022-11-02T07:25:41;70.40;;;27.85;;
68923;SDS011;55961;52.156;20.942;2022-11-02T07:28:07;77.37;;;25.23;;
68923;SDS011;55961;52.156;20.942;2022-11-02T07:30:34;72.53;;;26.25;;
68923;SDS011;55961;52.156;20.942;2022-11-02T07:33:00;65.22;;;24.77;;
68923;SDS011;55961;52.156;20.942;2022-11-02T07:35:26;69.50;;;26.97;;
68923;SDS011;55961;52.156;20.942;2022-11-02T07:37:55;70.90;;;26.20;;
68923;SDS011;55961;52.156;20.942;2022-11-02T07:40:22;67.57;;;25.52;;
68923;SDS011;55961;52.156;20.942;2022-11-02T07:42:48;61.88;;;23.33;;
68923;SDS011;55961;52.156;20.942;2022-11-02T07:45:14;63.43;;;25.30;;
68923;SDS011;55961;52.156;20.942;2022-11-02T07:47:41;62.13;;;23.05;;
68923;SDS011;55961;52.156;20.942;2022-11-02T07:50:08;57.97;;;24.60;;
68923;SDS011;55961;52.156;20.942;2022-11-02T07:52:34;56.15;;;23.40;;
68923;SDS011;55961;52.156;20.942;2022-11-02T07:54:59;61.67;;;23.73;;
68923;SDS011;55961;52.156;20.942;2022-11-02T07:57:25;61.33;;;23.23;;
68923;SDS011;55961;52.156;20.942;2022-11-02T07:59:51;58.10;;;23.33;;
68923;SDS011;55961;52.156;20.942;2022-11-02T08:02:17;54.00;;;21.50;;
68923;SDS011;55961;52.156;20.942;2022-11-02T08:04:42;56.97;;;22.73;;
68923;SDS011;55961;52.156;20.942;2022-11-02T08:07:08;59.97;;;23.20;;
68923;SDS011;55961;52.156;20.942;2022-11-02T08:09:34;55.78;;;22.80;;
68923;SDS011;55961;52.156;20.942;2022-11-02T08:12:09;51.13;;;22.63;;
68923;SDS011;55961;52.156;20.942;2022-11-02T08:14:34;55.40;;;22.80;;
68923;SDS011;55961;52.156;20.942;2022-11-02T08:17:00;52.25;;;22.38;;
68923;SDS011;55961;52.156;20.942;2022-11-02T08:19:26;47.83;;;21.40;;
68923;SDS011;55961;52.156;20.942;2022-11-02T08:21:52;47.70;;;20.05;;
68923;SDS011;55961;52.156;20.942;2022-11-02T08:24:20;50.83;;;23.07;;
68923;SDS011;55961;52.156;20.942;2022-11-02T08:26:46;46.00;;;21.40;;
68923;SDS011;55961;52.156;20.942;2022-11-02T08:29:12;46.63;;;20.63;;
68923;SDS011;55961;52.156;20.942;2022-11-02T08:31:37;47.83;;;23.13;;
68923;SDS011;55961;52.156;20.942;2022-11-02T08:34:03;50.38;;;24.08;;
68923;SDS011;55961;52.156;20.942;2022-11-02T08:36:29;50.83;;;24.50;;
68923;SDS011;55961;52.156;20.942;2022-11-02T08:38:55;52.03;;;24.47;;
68923;SDS011;55961;52.156;20.942;2022-11-02T08:41:21;52.00;;;24.30;;
68923;SDS011;55961;52.156;20.942;2022-11-02T08:43:47;46.90;;;20.48;;
68923;SDS011;55961;52.156;20.942;2022-11-02T08:46:13;48.00;;;23.17;;
68923;SDS011;55961;52.156;20.942;2022-11-02T08:48:39;51.40;;;24.65;;
68923;SDS011;55961;52.156;20.942;2022-11-02T08:51:05;51.20;;;25.10;;
68923;SDS011;55961;52.156;20.942;2022-11-02T08:53:33;44.80;;;22.50;;
68923;SDS011;55961;52.156;20.942;2022-11-02T08:55:59;46.25;;;22.35;;
68923;SDS011;55961;52.156;20.942;2022-11-02T08:58:25;43.83;;;20.88;;
68923;SDS011;55961;52.156;20.942;2022-11-02T09:00:52;42.45;;;21.20;;
68923;SDS011;55961;52.156;20.942;2022-11-02T09:03:18;38.92;;;20.52;;
68923;SDS011;55961;52.156;20.942;2022-11-02T09:05:45;42.30;;;20.60;;
68923;SDS011;55961;52.156;20.942;2022-11-02T09:08:12;39.97;;;17.67;;
68923;SDS011;55961;52.156;20.942;2022-11-02T09:10:41;43.97;;;19.90;;
68923;SDS011;55961;52.156;20.942;2022-11-02T09:13:10;34.20;;;16.92;;
68923;SDS011;55961;52.156;20.942;2022-11-02T09:15:37;40.17;;;17.92;;
68923;SDS011;55961;52.156;20.942;2022-11-02T09:18:04;40.50;;;18.10;;
68923;SDS011;55961;52.156;20.942;2022-11-02T09:20:31;39.55;;;18.23;;
68923;SDS011;55961;52.156;20.942;2022-11-02T09:22:58;41.60;;;18.67;;
68923;SDS011;55961;52.156;20.942;2022-11-02T09:25:24;36.75;;;16.92;;
68923;SDS011;55961;52.156;20.942;2022-11-02T09:27:54;31.67;;;15.00;;
68923;SDS011;55961;52.156;20.942;2022-11-02T09:30:20;36.83;;;15.47;;
68923;SDS011;55961;52.156;20.942;2022-11-02T09:32:57;30.70;;;14.68;;
68923;SDS011;55961;52.156;20.942;2022-11-02T09:35:25;33.92;;;16.13;;
68923;SDS011;55961;52.156;20.942;2022-11-02T09:37:52;32.90;;;16.25;;
68923;SDS011;55961;52.156;20.942;2022-11-02T09:40:25;38.20;;;18.23;;
68923;SDS011;55961;52.156;20.942;2022-11-02T09:43:14;32.55;;;16.65;;
68923;SDS011;55961;52.156;20.942;2022-11-02T09:48:21;34.65;;;17.38;;
68923;SDS011;55961;52.156;20.942;2022-11-02T09:51:00;33.87;;;16.50;;
68923;SDS011;55961;52.156;20.942;2022-11-02T09:53:41;36.10;;;17.38;;
68923;SDS011;55961;52.156;20.942;2022-11-02T09:56:20;42.83;;;18.13;;
68923;SDS011;55961;52.156;20.942;2022-11-02T09:58:48;38.70;;;18.45;;
68923;SDS011;55961;52.156;20.942;2022-11-02T10:09:52;36.60;;;16.58;;
68923;SDS011;55961;52.156;20.942;2022-11-02T10:12:27;34.20;;;16.95;;
68923;SDS011;55961;52.156;20.942;2022-11-02T10:15:16;41.47;;;19.17;;
68923;SDS011;55961;52.156;20.942;2022-11-02T10:18:08;40.70;;;18.13;;
68923;SDS011;55961;52.156;20.942;2022-11-02T10:20:45;40.90;;;18.25;;
68923;SDS011;55961;52.156;20.942;2022-11-02T10:23:57;41.65;;;18.73;;
68923;SDS011;55961;52.156;20.942;2022-11-02T10:26:21;38.42;;;19.00;;
68923;SDS011;55961;52.156;20.942;2022-11-02T10:28:49;40.60;;;18.17;;
68923;SDS011;55961;52.156;20.942;2022-11-02T10:31:36;38.60;;;16.73;;
68923;SDS011;55961;52.156;20.942;2022-11-02T10:34:12;37.38;;;17.75;;
68923;SDS011;55961;52.156;20.942;2022-11-02T10:39:32;36.10;;;16.27;;
68923;SDS011;55961;52.156;20.942;2022-11-02T10:42:19;33.77;;;16.50;;
68923;SDS011;55961;52.156;20.942;2022-11-02T10:48:16;33.30;;;16.55;;
68923;SDS011;55961;52.156;20.942;2022-11-02T10:51:31;32.28;;;16.20;;
68923;SDS011;55961;52.156;20.942;2022-11-02T10:53:42;33.50;;;16.27;;
68923;SDS011;55961;52.156;20.942;2022-11-02T10:58:48;29.58;;;15.80;;
68923;SDS011;55961;52.156;20.942;2022-11-02T11:01:18;23.58;;;12.00;;
68923;SDS011;55961;52.156;20.942;2022-11-02T11:04:00;29.88;;;14.02;;
68923;SDS011;55961;52.156;20.942;2022-11-02T11:09:20;33.60;;;13.73;;
68923;SDS011;55961;52.156;20.942;2022-11-02T11:11:52;26.10;;;14.75;;
68923;SDS011;55961;52.156;20.942;2022-11-02T11:14:31;20.95;;;10.55;;
68923;SDS011;55961;52.156;20.942;2022-11-02T11:17:02;21.70;;;11.30;;
68923;SDS011;55961;52.156;20.942;2022-11-02T11:19:47;26.42;;;11.15;;
68923;SDS011;55961;52.156;20.942;2022-11-02T11:22:28;21.90;;;11.40;;
68923;SDS011;55961;52.156;20.942;2022-11-02T11:30:22;21.05;;;10.98;;
68923;SDS011;55961;52.156;20.942;2022-11-02T11:32:54;18.48;;;10.73;;
68923;SDS011;55961;52.156;20.942;2022-11-02T11:35:22;17.63;;;8.63;;
68923;SDS011;55961;52.156;20.942;2022-11-02T11:37:54;18.70;;;11.27;;
68923;SDS011;55961;52.156;20.942;2022-11-02T11:40:23;21.73;;;10.98;;
68923;SDS011;55961;52.156;20.942;2022-11-02T11:42:52;19.17;;;11.30;;
68923;SDS011;55961;52.156;20.942;2022-11-02T11:45:26;22.20;;;11.70;;
68923;SDS011;55961;52.156;20.942;2022-11-02T11:47:57;21.60;;;12.50;;
68923;SDS011;55961;52.156;20.942;2022-11-02T11:50:31;21.65;;;12.70;;
68923;SDS011;55961;52.156;20.942;2022-11-02T11:55:46;22.95;;;11.52;;
68923;SDS011;55961;52.156;20.942;2022-11-02T12:00:44;24.07;;;13.57;;
68923;SDS011;55961;52.156;20.942;2022-11-02T12:03:25;21.67;;;10.02;;
68923;SDS011;55961;52.156;20.942;2022-11-02T12:08:59;18.52;;;11.13;;
68923;SDS011;55961;52.156;20.942;2022-11-02T12:17:56;21.25;;;11.63;;
68923;SDS011;55961;52.156;20.942;2022-11-02T12:20:39;20.65;;;11.63;;
68923;SDS011;55961;52.156;20.942;2022-11-02T12:28:56;22.40;;;11.67;;
68923;SDS011;55961;52.156;20.942;2022-11-02T12:31:45;20.05;;;11.57;;
68923;SDS011;55961;52.156;20.942;2022-11-02T12:37:21;19.15;;;10.82;;
68923;SDS011;55961;52.156;20.942;2022-11-02T12:42:36;19.97;;;11.00;;
68923;SDS011;55961;52.156;20.942;2022-11-02T12:45:20;19.02;;;11.07;;
68923;SDS011;55961;52.156;20.942;2022-11-02T12:48:01;20.17;;;11.13;;
68923;SDS011;55961;52.156;20.942;2022-11-02T12:50:32;18.05;;;10.68;;
68923;SDS011;55961;52.156;20.942;2022-11-02T12:53:29;17.90;;;11.10;;
68923;SDS011;55961;52.156;20.942;2022-11-02T12:56:11;17.70;;;11.07;;
68923;SDS011;55961;52.156;20.942;2022-11-02T12:58:42;19.27;;;10.07;;
68923;SDS011;55961;52.156;20.942;2022-11-02T13:03:51;19.40;;;10.85;;
68923;SDS011;55961;52.156;20.942;2022-11-02T13:06:42;21.58;;;11.20;;
68923;SDS011;55961;52.156;20.942;2022-11-02T13:09:12;20.90;;;12.07;;
68923;SDS011;55961;52.156;20.942;2022-11-02T13:11:44;24.35;;;12.57;;
68923;SDS011;55961;52.156;20.942;2022-11-02T13:14:19;25.65;;;13.52;;
68923;SDS011;55961;52.156;20.942;2022-11-02T13:16:49;17.67;;;11.50;;
68923;SDS011;55961;52.156;20.942;2022-11-02T13:19:31;21.25;;;12.02;;
68923;SDS011;55961;52.156;20.942;2022-11-02T13:22:02;18.63;;;10.77;;
68923;SDS011;55961;52.156;20.942;2022-11-02T13:24:30;17.63;;;11.20;;
68923;SDS011;55961;52.156;20.942;2022-11-02T13:27:03;19.17;;;11.07;;
68923;SDS011;55961;52.156;20.942;2022-11-02T13:29:41;17.80;;;10.43;;
68923;SDS011;55961;52.156;20.942;2022-11-02T13:32:23;20.15;;;10.05;;
68923;SDS011;55961;52.156;20.942;2022-11-02T13:35:13;20.97;;;10.77;;
68923;SDS011;55961;52.156;20.942;2022-11-02T13:37:45;20.48;;;10.05;;
68923;SDS011;55961;52.156;20.942;2022-11-02T13:40:20;21.50;;;10.95;;
68923;SDS011;55961;52.156;20.942;2022-11-02T13:51:39;19.85;;;11.27;;
68923;SDS011;55961;52.156;20.942;2022-11-02T13:56:39;20.20;;;11.38;;
68923;SDS011;55961;52.156;20.942;2022-11-02T13:59:07;21.50;;;11.57;;
68923;SDS011;55961;52.156;20.942;2022-11-02T14:01:36;23.80;;;11.67;;
68923;SDS011;55961;52.156;20.942;2022-11-02T14:04:09;21.58;;;12.02;;
68923;SDS011;55961;52.156;20.942;2022-11-02T14:06:43;22.83;;;13.23;;
68923;SDS011;55961;52.156;20.942;2022-11-02T14:09:26;24.02;;;12.48;;
68923;SDS011;55961;52.156;20.942;2022-11-02T14:14:43;24.90;;;12.63;;
68923;SDS011;55961;52.156;20.942;2022-11-02T14:17:13;23.15;;;13.18;;
68923;SDS011;55961;52.156;20.942;2022-11-02T14:22:13;25.05;;;13.85;;
68923;SDS011;55961;52.156;20.942;2022-11-02T14:37:50;31.02;;;15.07;;
68923;SDS011;55961;52.156;20.942;2022-11-02T14:46:10;29.10;;;15.85;;
68923;SDS011;55961;52.156;20.942;2022-11-02T14:48:46;31.50;;;15.82;;
68923;SDS011;55961;52.156;20.942;2022-11-02T14:51:21;29.05;;;15.88;;
68923;SDS011;55961;52.156;20.942;2022-11-02T14:56:54;29.98;;;16.98;;
68923;SDS011;55961;52.156;20.942;2022-11-02T14:59:27;27.92;;;15.20;;
68923;SDS011;55961;52.156;20.942;2022-11-02T15:02:00;25.63;;;14.55;;
68923;SDS011;55961;52.156;20.942;2022-11-02T15:04:47;28.45;;;16.17;;
68923;SDS011;55961;52.156;20.942;2022-11-02T15:07:24;31.33;;;17.47;;
68923;SDS011;55961;52.156;20.942;2022-11-02T15:10:05;31.15;;;17.08;;
68923;SDS011;55961;52.156;20.942;2022-11-02T15:12:44;30.20;;;16.52;;
68923;SDS011;55961;52.156;20.942;2022-11-02T15:15:31;32.78;;;17.45;;
68923;SDS011;55961;52.156;20.942;2022-11-02T15:24:20;33.83;;;16.60;;
68923;SDS011;55961;52.156;20.942;2022-11-02T15:26:46;31.70;;;16.77;;
68923;SDS011;55961;52.156;20.942;2022-11-02T15:31:47;30.67;;;16.27;;
68923;SDS011;55961;52.156;20.942;2022-11-02T15:34:18;35.03;;;17.00;;
68923;SDS011;55961;52.156;20.942;2022-11-02T15:36:48;30.48;;;17.00;;
68923;SDS011;55961;52.156;20.942;2022-11-02T15:39:14;30.55;;;16.35;;
68923;SDS011;55961;52.156;20.942;2022-11-02T15:58:57;37.23;;;18.70;;
68923;SDS011;55961;52.156;20.942;2022-11-02T16:01:44;36.08;;;18.80;;
68923;SDS011;55961;52.156;20.942;2022-11-02T16:04:16;41.63;;;20.48;;
68923;SDS011;55961;52.156;20.942;2022-11-02T16:06:44;39.35;;;22.33;;
68923;SDS011;55961;52.156;20.942;2022-11-02T16:09:28;36.80;;;20.17;;
68923;SDS011;55961;52.156;20.942;2022-11-02T16:12:06;41.10;;;22.13;;
68923;SDS011;55961;52.156;20.942;2022-11-02T16:17:23;41.78;;;24.35;;
68923;SDS011;55961;52.156;20.942;2022-11-02T16:19:51;44.38;;;25.55;;
68923;SDS011;55961;52.156;20.942;2022-11-02T16:22:32;50.95;;;27.67;;
68923;SDS011;55961;52.156;20.942;2022-11-02T16:24:58;58.33;;;31.90;;
68923;SDS011;55961;52.156;20.942;2022-11-02T16:27:23;69.97;;;36.50;;
68923;SDS011;55961;52.156;20.942;2022-11-02T16:29:49;74.65;;;37.58;;
68923;SDS011;55961;52.156;20.942;2022-11-02T16:32:15;81.43;;;41.23;;
68923;SDS011;55961;52.156;20.942;2022-11-02T16:34:42;68.27;;;37.93;;
68923;SDS011;55961;52.156;20.942;2022-11-02T16:37:09;69.57;;;39.00;;
68923;SDS011;55961;52.156;20.942;2022-11-02T16:39:39;73.00;;;38.72;;
68923;SDS011;55961;52.156;20.942;2022-11-02T16:42:17;72.65;;;39.45;;
68923;SDS011;55961;52.156;20.942;2022-11-02T16:45:04;75.03;;;39.55;;
68923;SDS011;55961;52.156;20.942;2022-11-02T16:47:46;73.67;;;39.03;;
68923;SDS011;55961;52.156;20.942;2022-11-02T16:50:22;75.57;;;38.17;;
68923;SDS011;55961;52.156;20.942;2022-11-02T16:53:01;75.97;;;39.60;;
68923;SDS011;55961;52.156;20.942;2022-11-02T16:55:28;68.88;;;37.00;;
68923;SDS011;55961;52.156;20.942;2022-11-02T16:58:04;69.30;;;37.40;;